sensor_id;sensor_type;location;lat;lon;timestamp;pressure;altitude;pressure_sealevel;temperature;humidity
11190;BME280;5651;50.926;4.718;2023-04-07T00:01:06;101390.91;;;9.70;98.36
11190;BME280;5651;50.926;4.718;2023-04-07T00:03:31;101394.38;;;9.70;97.73
11190;BME280;5651;50.926;4.718;2023-04-07T00:05:58;101396.94;;;9.67;99.03
11190;BME280;5651;50.926;4.718;2023-04-07T00:08:23;101395.25;;;9.69;99.89
11190;BME280;5651;50.926;4.718;2023-04-07T00:10:49;101392.59;;;9.67;100.00
11190;BME280;5651;50.926;4.718;2023-04-07T00:13:15;101390.84;;;9.65;98.82
11190;BME280;5651;50.926;4.718;2023-04-07T00:15:41;101389.09;;;9.64;98.75
11190;BME280;5651;50.926;4.718;2023-04-07T00:18:07;101389.97;;;9.60;100.00
11190;BME280;5651;50.926;4.718;2023-04-07T00:20:32;101392.59;;;9.66;97.79
11190;BME280;5651;50.926;4.718;2023-04-07T00:22:58;101391.75;;;9.67;98.79
11190;BME280;5651;50.926;4.718;2023-04-07T00:25:24;101395.16;;;9.58;100.00
11190;BME280;5651;50.926;4.718;2023-04-07T00:27:50;101398.56;;;9.54;99.61
11190;BME280;5651;50.926;4.718;2023-04-07T00:30:16;101390.78;;;9.54;97.95
11190;BME280;5651;50.926;4.718;2023-04-07T00:32:42;101392.53;;;9.57;98.31
11190;BME280;5651;50.926;4.718;2023-04-07T00:35:08;101389.03;;;9.53;100.00
11190;BME280;5651;50.926;4.718;2023-04-07T00:37:34;101393.31;;;9.49;98.65
11190;BME280;5651;50.926;4.718;2023-04-07T00:40:00;101390.72;;;9.48;100.00
11190;BME280;5651;50.926;4.718;2023-04-07T00:42:26;101392.44;;;9.46;100.00
11190;BME280;5651;50.926;4.718;2023-04-07T00:44:51;101394.13;;;9.42;100.00
11190;BME280;5651;50.926;4.718;2023-04-07T00:47:17;101396.72;;;9.42;100.00
11190;BME280;5651;50.926;4.718;2023-04-07T00:49:43;101395.84;;;9.39;100.00
11190;BME280;5651;50.926;4.718;2023-04-07T00:52:09;101399.28;;;9.36;100.00
11190;BME280;5651;50.926;4.718;2023-04-07T00:54:37;101391.47;;;9.34;100.00
11190;BME280;5651;50.926;4.718;2023-04-07T00:57:03;101394.03;;;9.33;100.00
11190;BME280;5651;50.926;4.718;2023-04-07T00:59:29;101394.03;;;9.30;100.00
11190;BME280;5651;50.926;4.718;2023-04-07T01:04:45;101391.38;;;9.27;100.00
11190;BME280;5651;50.926;4.718;2023-04-07T01:07:17;101389.63;;;9.26;100.00
11190;BME280;5651;50.926;4.718;2023-04-07T01:09:54;101386.13;;;9.22;100.00
11190;BME280;5651;50.926;4.718;2023-04-07T01:15:09;101386.97;;;9.18;100.00
11190;BME280;5651;50.926;4.718;2023-04-07T01:17:37;101388.72;;;9.17;100.00
11190;BME280;5651;50.926;4.718;2023-04-07T01:20:06;101387.84;;;9.17;100.00
11190;BME280;5651;50.926;4.718;2023-04-07T01:22:46;101382.63;;;9.15;100.00
11190;BME280;5651;50.926;4.718;2023-04-07T01:30:30;101382.59;;;9.12;100.00
11190;BME280;5651;50.926;4.718;2023-04-07T01:32:58;101384.28;;;9.10;100.00
11190;BME280;5651;50.926;4.718;2023-04-07T01:35:26;101383.38;;;9.07;100.00
11190;BME280;5651;50.926;4.718;2023-04-07T01:37:53;101385.13;;;9.06;100.00
11190;BME280;5651;50.926;4.718;2023-04-07T01:40:19;101379.91;;;9.04;100.00
11190;BME280;5651;50.926;4.718;2023-04-07T01:42:47;101383.38;;;9.02;100.00
11190;BME280;5651;50.926;4.718;2023-04-07T01:45:15;101386.78;;;8.99;100.00
11190;BME280;5651;50.926;4.718;2023-04-07T01:47:41;101388.47;;;8.96;100.00
11190;BME280;5651;50.926;4.718;2023-04-07T01:50:10;101381.50;;;8.93;100.00
11190;BME280;5651;50.926;4.718;2023-04-07T01:52:37;101384.97;;;8.91;100.00
11190;BME280;5651;50.926;4.718;2023-04-07T01:55:04;101382.31;;;8.87;100.00
11190;BME280;5651;50.926;4.718;2023-04-07T01:57:30;101388.34;;;8.82;98.54
11190;BME280;5651;50.926;4.718;2023-04-07T01:59:56;101379.66;;;8.81;99.82
11190;BME280;5651;50.926;4.718;2023-04-07T02:02:22;101391.69;;;8.73;100.00
11190;BME280;5651;50.926;4.718;2023-04-07T02:05:00;101398.56;;;8.69;98.86
11190;BME280;5651;50.926;4.718;2023-04-07T02:07:36;101402.00;;;8.64;99.64
11190;BME280;5651;50.926;4.718;2023-04-07T02:10:05;101401.00;;;8.55;99.67
11190;BME280;5651;50.926;4.718;2023-04-07T02:12:33;101397.50;;;8.52;100.00
11190;BME280;5651;50.926;4.718;2023-04-07T02:15:00;101402.53;;;8.43;100.00
11190;BME280;5651;50.926;4.718;2023-04-07T02:17:27;101411.09;;;8.35;100.00
11190;BME280;5651;50.926;4.718;2023-04-07T02:19:55;101408.38;;;8.28;100.00
11190;BME280;5651;50.926;4.718;2023-04-07T02:22:22;101417.81;;;8.21;100.00
11190;BME280;5651;50.926;4.718;2023-04-07T02:24:48;101414.25;;;8.13;100.00
11190;BME280;5651;50.926;4.718;2023-04-07T02:27:14;101417.59;;;8.04;100.00
11190;BME280;5651;50.926;4.718;2023-04-07T02:29:40;101415.69;;;7.95;100.00
11190;BME280;5651;50.926;4.718;2023-04-07T02:32:06;101422.50;;;7.87;100.00
11190;BME280;5651;50.926;4.718;2023-04-07T02:34:32;101422.38;;;7.79;100.00
11190;BME280;5651;50.926;4.718;2023-04-07T02:36:58;101415.34;;;7.70;100.00
11190;BME280;5651;50.926;4.718;2023-04-07T02:39:23;101417.81;;;7.64;100.00
11190;BME280;5651;50.926;4.718;2023-04-07T02:41:49;101418.59;;;7.58;100.00
11190;BME280;5651;50.926;4.718;2023-04-07T02:44:15;101413.25;;;7.51;100.00
11190;BME280;5651;50.926;4.718;2023-04-07T02:46:41;101414.84;;;7.42;100.00
11190;BME280;5651;50.926;4.718;2023-04-07T02:49:07;101419.94;;;7.36;100.00
11190;BME280;5651;50.926;4.718;2023-04-07T02:51:32;101418.13;;;7.32;100.00
11190;BME280;5651;50.926;4.718;2023-04-07T02:53:58;101423.19;;;7.26;100.00
11190;BME280;5651;50.926;4.718;2023-04-07T02:56:24;101425.72;;;7.21;100.00
11190;BME280;5651;50.926;4.718;2023-04-07T02:58:50;101423.03;;;7.17;100.00
11190;BME280;5651;50.926;4.718;2023-04-07T03:01:16;101422.03;;;7.10;100.00
11190;BME280;5651;50.926;4.718;2023-04-07T03:03:41;101427.97;;;7.04;99.20
11190;BME280;5651;50.926;4.718;2023-04-07T03:06:09;101436.56;;;7.02;99.63
11190;BME280;5651;50.926;4.718;2023-04-07T03:08:35;101429.59;;;6.97;99.61
11190;BME280;5651;50.926;4.718;2023-04-07T03:11:01;101426.91;;;6.94;99.31
11190;BME280;5651;50.926;4.718;2023-04-07T03:13:27;101431.19;;;6.92;100.00
11190;BME280;5651;50.926;4.718;2023-04-07T03:15:54;101431.97;;;6.88;100.00
11190;BME280;5651;50.926;4.718;2023-04-07T03:18:20;101434.56;;;6.88;99.48
11190;BME280;5651;50.926;4.718;2023-04-07T03:20:47;101431.91;;;6.85;99.84
11190;BME280;5651;50.926;4.718;2023-04-07T03:23:13;101428.47;;;6.85;100.00
11190;BME280;5651;50.926;4.718;2023-04-07T03:25:39;101431.88;;;6.82;100.00
11190;BME280;5651;50.926;4.718;2023-04-07T03:28:05;101424.94;;;6.81;100.00
11190;BME280;5651;50.926;4.718;2023-04-07T03:30:32;101430.94;;;6.80;100.00
11190;BME280;5651;50.926;4.718;2023-04-07T03:32:57;101428.38;;;6.80;100.00
11190;BME280;5651;50.926;4.718;2023-04-07T03:35:23;101426.59;;;6.79;100.00
11190;BME280;5651;50.926;4.718;2023-04-07T03:37:49;101424.84;;;6.76;99.67
11190;BME280;5651;50.926;4.718;2023-04-07T03:40:15;101424.84;;;6.76;100.00
11190;BME280;5651;50.926;4.718;2023-04-07T03:42:41;101422.25;;;6.76;100.00
11190;BME280;5651;50.926;4.718;2023-04-07T03:45:08;101423.91;;;6.74;100.00
11190;BME280;5651;50.926;4.718;2023-04-07T03:47:35;101423.91;;;6.73;100.00
11190;BME280;5651;50.926;4.718;2023-04-07T03:50:01;101424.72;;;6.70;100.00
11190;BME280;5651;50.926;4.718;2023-04-07T03:52:27;101426.41;;;6.70;100.00
11190;BME280;5651;50.926;4.718;2023-04-07T03:54:53;101430.72;;;6.68;100.00
11190;BME280;5651;50.926;4.718;2023-04-07T03:57:19;101435.00;;;6.67;100.00
11190;BME280;5651;50.926;4.718;2023-04-07T03:59:46;101432.38;;;6.65;100.00
11190;BME280;5651;50.926;4.718;2023-04-07T04:02:16;101434.06;;;6.63;100.00
11190;BME280;5651;50.926;4.718;2023-04-07T04:04:42;101428.84;;;6.62;100.00
11190;BME280;5651;50.926;4.718;2023-04-07T04:07:08;101434.06;;;6.63;100.00
11190;BME280;5651;50.926;4.718;2023-04-07T04:09:34;101438.41;;;6.64;100.00
11190;BME280;5651;50.926;4.718;2023-04-07T04:12:00;101432.38;;;6.64;99.96
11190;BME280;5651;50.926;4.718;2023-04-07T04:14:26;101436.66;;;6.65;99.54
11190;BME280;5651;50.926;4.718;2023-04-07T04:16:52;101432.38;;;6.65;99.96
11190;BME280;5651;50.926;4.718;2023-04-07T04:19:18;101445.34;;;6.65;100.00
11190;BME280;5651;50.926;4.718;2023-04-07T04:21:44;101450.50;;;6.64;99.25
11190;BME280;5651;50.926;4.718;2023-04-07T04:24:10;101447.91;;;6.65;100.00
11190;BME280;5651;50.926;4.718;2023-04-07T04:26:36;101453.06;;;6.64;100.00
11190;BME280;5651;50.926;4.718;2023-04-07T04:29:02;101444.41;;;6.63;100.00
11190;BME280;5651;50.926;4.718;2023-04-07T04:31:28;101449.59;;;6.63;99.92
11190;BME280;5651;50.926;4.718;2023-04-07T04:33:54;101455.59;;;6.61;99.17
11190;BME280;5651;50.926;4.718;2023-04-07T04:36:19;101460.78;;;6.62;99.17
11190;BME280;5651;50.926;4.718;2023-04-07T04:38:45;101459.00;;;6.60;99.21
11190;BME280;5651;50.926;4.718;2023-04-07T04:41:11;101454.72;;;6.60;99.55
11190;BME280;5651;50.926;4.718;2023-04-07T04:43:37;101448.59;;;6.57;98.54
11190;BME280;5651;50.926;4.718;2023-04-07T04:46:03;101449.44;;;6.56;98.56
11190;BME280;5651;50.926;4.718;2023-04-07T04:48:28;101453.72;;;6.55;99.04
11190;BME280;5651;50.926;4.718;2023-04-07T04:50:54;101454.53;;;6.53;98.73
11190;BME280;5651;50.926;4.718;2023-04-07T04:53:20;101459.69;;;6.49;99.04
11190;BME280;5651;50.926;4.718;2023-04-07T04:55:46;101457.84;;;6.45;98.67
11190;BME280;5651;50.926;4.718;2023-04-07T04:58:17;101454.28;;;6.40;97.67
11190;BME280;5651;50.926;4.718;2023-04-07T05:00:43;101461.06;;;6.35;97.00
11190;BME280;5651;50.926;4.718;2023-04-07T05:03:09;101461.00;;;6.32;97.13
11190;BME280;5651;50.926;4.718;2023-04-07T05:05:35;101476.44;;;6.29;97.08
11190;BME280;5651;50.926;4.718;2023-04-07T05:08:01;101478.91;;;6.24;97.29
11190;BME280;5651;50.926;4.718;2023-04-07T05:10:26;101475.34;;;6.19;97.00
11190;BME280;5651;50.926;4.718;2023-04-07T05:12:52;101473.56;;;6.15;98.14
11190;BME280;5651;50.926;4.718;2023-04-07T05:15:18;101477.72;;;6.10;97.51
11190;BME280;5651;50.926;4.718;2023-04-07T05:17:44;101481.06;;;6.04;98.08
11190;BME280;5651;50.926;4.718;2023-04-07T05:20:15;101486.13;;;5.99;96.13
11190;BME280;5651;50.926;4.718;2023-04-07T05:22:41;101483.41;;;5.96;96.55
11190;BME280;5651;50.926;4.718;2023-04-07T05:25:08;101491.06;;;5.93;96.62
11190;BME280;5651;50.926;4.718;2023-04-07T05:27:33;101491.84;;;5.89;96.10
11190;BME280;5651;50.926;4.718;2023-04-07T05:29:59;101490.94;;;5.87;96.33
11190;BME280;5651;50.926;4.718;2023-04-07T05:32:27;101492.63;;;5.85;95.73
11190;BME280;5651;50.926;4.718;2023-04-07T05:34:53;101491.69;;;5.83;96.36
11190;BME280;5651;50.926;4.718;2023-04-07T05:37:18;101500.28;;;5.82;95.90
11190;BME280;5651;50.926;4.718;2023-04-07T05:39:44;101495.91;;;5.79;95.86
11190;BME280;5651;50.926;4.718;2023-04-07T05:42:10;101500.19;;;5.79;96.14
11190;BME280;5651;50.926;4.718;2023-04-07T05:44:36;101497.59;;;5.77;95.75
11190;BME280;5651;50.926;4.718;2023-04-07T05:47:01;101501.09;;;5.79;95.90
11190;BME280;5651;50.926;4.718;2023-04-07T05:49:30;101502.78;;;5.79;96.20
11190;BME280;5651;50.926;4.718;2023-04-07T05:51:56;101500.16;;;5.77;95.81
11190;BME280;5651;50.926;4.718;2023-04-07T05:54:22;101503.66;;;5.78;95.00
11190;BME280;5651;50.926;4.718;2023-04-07T05:56:47;101501.94;;;5.78;95.70
11190;BME280;5651;50.926;4.718;2023-04-07T05:59:13;101506.22;;;5.78;95.38
11190;BME280;5651;50.926;4.718;2023-04-07T06:01:39;101509.69;;;5.78;95.58
11190;BME280;5651;50.926;4.718;2023-04-07T06:04:05;101511.47;;;5.81;95.74
11190;BME280;5651;50.926;4.718;2023-04-07T06:06:31;101521.91;;;5.84;95.77
11190;BME280;5651;50.926;4.718;2023-04-07T06:08:57;101522.03;;;5.89;95.07
11190;BME280;5651;50.926;4.718;2023-04-07T06:11:23;101527.41;;;5.98;96.46
11190;BME280;5651;50.926;4.718;2023-04-07T06:13:48;101521.69;;;6.10;96.39
11190;BME280;5651;50.926;4.718;2023-04-07T06:16:14;101521.13;;;6.22;96.21
11190;BME280;5651;50.926;4.718;2023-04-07T06:18:40;101526.75;;;6.40;98.95
11190;BME280;5651;50.926;4.718;2023-04-07T06:21:06;101535.78;;;6.58;99.40
11190;BME280;5651;50.926;4.718;2023-04-07T06:23:32;101525.78;;;6.73;97.98
11190;BME280;5651;50.926;4.718;2023-04-07T06:25:58;101531.28;;;6.89;99.03
11190;BME280;5651;50.926;4.718;2023-04-07T06:28:23;101531.63;;;7.04;98.19
11190;BME280;5651;50.926;4.718;2023-04-07T06:30:50;101530.22;;;7.20;99.17
11190;BME280;5651;50.926;4.718;2023-04-07T06:33:16;101535.72;;;7.36;98.17
11190;BME280;5651;50.926;4.718;2023-04-07T06:35:41;101536.91;;;7.53;100.00
11190;BME280;5651;50.926;4.718;2023-04-07T06:38:07;101542.22;;;7.59;100.00
11190;BME280;5651;50.926;4.718;2023-04-07T06:40:35;101551.94;;;7.71;99.02
11190;BME280;5651;50.926;4.718;2023-04-07T06:43:01;101538.31;;;7.83;100.00
11190;BME280;5651;50.926;4.718;2023-04-07T06:45:28;101546.34;;;7.96;100.00
11190;BME280;5651;50.926;4.718;2023-04-07T06:47:54;101546.56;;;8.09;100.00
11190;BME280;5651;50.926;4.718;2023-04-07T06:50:20;101551.16;;;8.24;100.00
11190;BME280;5651;50.926;4.718;2023-04-07T06:52:47;101540.94;;;8.37;100.00
11190;BME280;5651;50.926;4.718;2023-04-07T06:55:13;101551.63;;;8.52;100.00
11190;BME280;5651;50.926;4.718;2023-04-07T06:57:38;101547.47;;;8.64;100.00
11190;BME280;5651;50.926;4.718;2023-04-07T07:00:05;101555.34;;;8.68;100.00
11190;BME280;5651;50.926;4.718;2023-04-07T07:02:32;101558.09;;;8.79;100.00
11190;BME280;5651;50.926;4.718;2023-04-07T07:04:58;101560.84;;;8.90;100.00
11190;BME280;5651;50.926;4.718;2023-04-07T07:07:24;101563.53;;;8.99;100.00
11190;BME280;5651;50.926;4.718;2023-04-07T07:09:50;101561.91;;;9.06;100.00
11190;BME280;5651;50.926;4.718;2023-04-07T07:12:16;101566.31;;;9.13;100.00
11190;BME280;5651;50.926;4.718;2023-04-07T07:14:43;101560.38;;;9.22;100.00
11190;BME280;5651;50.926;4.718;2023-04-07T07:17:08;101568.22;;;9.27;100.00
11190;BME280;5651;50.926;4.718;2023-04-07T07:19:34;101570.88;;;9.28;100.00
11190;BME280;5651;50.926;4.718;2023-04-07T07:22:01;101569.19;;;9.35;100.00
11190;BME280;5651;50.926;4.718;2023-04-07T07:24:29;101570.16;;;9.40;100.00
11190;BME280;5651;50.926;4.718;2023-04-07T07:26:55;101568.47;;;9.48;100.00
11190;BME280;5651;50.926;4.718;2023-04-07T07:29:22;101571.13;;;9.53;100.00
11190;BME280;5651;50.926;4.718;2023-04-07T07:31:47;101573.03;;;9.66;100.00
11190;BME280;5651;50.926;4.718;2023-04-07T07:34:13;101575.72;;;9.73;100.00
11190;BME280;5651;50.926;4.718;2023-04-07T07:36:39;101574.91;;;9.81;100.00
11190;BME280;5651;50.926;4.718;2023-04-07T07:39:05;101579.38;;;9.95;100.00
11190;BME280;5651;50.926;4.718;2023-04-07T07:41:31;101585.53;;;10.02;100.00
11190;BME280;5651;50.926;4.718;2023-04-07T07:43:57;101589.91;;;10.06;100.00
11190;BME280;5651;50.926;4.718;2023-04-07T07:46:23;101592.50;;;10.06;100.00
11190;BME280;5651;50.926;4.718;2023-04-07T07:48:50;101591.75;;;10.16;100.00
11190;BME280;5651;50.926;4.718;2023-04-07T07:51:16;101602.22;;;10.19;100.00
11190;BME280;5651;50.926;4.718;2023-04-07T07:53:43;101602.16;;;10.18;100.00
11190;BME280;5651;50.926;4.718;2023-04-07T07:56:10;101608.28;;;10.18;100.00
11190;BME280;5651;50.926;4.718;2023-04-07T07:58:36;101611.78;;;10.22;100.00
11190;BME280;5651;50.926;4.718;2023-04-07T08:01:02;101615.25;;;10.22;100.00
11190;BME280;5651;50.926;4.718;2023-04-07T08:03:28;101614.38;;;10.22;100.00
11190;BME280;5651;50.926;4.718;2023-04-07T08:05:54;101612.78;;;10.35;100.00
11190;BME280;5651;50.926;4.718;2023-04-07T08:08:20;101613.75;;;10.44;100.00
11190;BME280;5651;50.926;4.718;2023-04-07T08:10:45;101618.16;;;10.55;100.00
11190;BME280;5651;50.926;4.718;2023-04-07T08:13:11;101623.44;;;10.64;100.00
11190;BME280;5651;50.926;4.718;2023-04-07T08:15:38;101622.63;;;10.70;100.00
11190;BME280;5651;50.926;4.718;2023-04-07T08:18:04;101627.88;;;10.74;100.00
11190;BME280;5651;50.926;4.718;2023-04-07T08:20:31;101627.84;;;10.71;100.00
11190;BME280;5651;50.926;4.718;2023-04-07T08:22:57;101626.13;;;10.76;100.00
11190;BME280;5651;50.926;4.718;2023-04-07T08:25:23;101631.38;;;10.80;100.00
11190;BME280;5651;50.926;4.718;2023-04-07T08:27:49;101639.28;;;10.87;100.00
11190;BME280;5651;50.926;4.718;2023-04-07T08:30:15;101634.88;;;10.83;100.00
11190;BME280;5651;50.926;4.718;2023-04-07T08:32:43;101638.38;;;10.87;100.00
11190;BME280;5651;50.926;4.718;2023-04-07T08:35:09;101641.03;;;10.91;100.00
11190;BME280;5651;50.926;4.718;2023-04-07T08:37:36;101639.34;;;11.00;100.00
11190;BME280;5651;50.926;4.718;2023-04-07T08:40:02;101628.91;;;11.03;100.00
11190;BME280;5651;50.926;4.718;2023-04-07T08:42:31;101634.25;;;11.20;100.00
11190;BME280;5651;50.926;4.718;2023-04-07T08:45:02;101636.84;;;11.20;100.00
11190;BME280;5651;50.926;4.718;2023-04-07T08:47:30;101650.72;;;11.16;100.00
11190;BME280;5651;50.926;4.718;2023-04-07T08:50:02;101650.75;;;11.19;100.00
11190;BME280;5651;50.926;4.718;2023-04-07T08:52:33;101645.47;;;11.09;100.00
11190;BME280;5651;50.926;4.718;2023-04-07T08:55:00;101647.25;;;11.17;100.00
11190;BME280;5651;50.926;4.718;2023-04-07T08:57:30;101655.97;;;11.17;100.00
11190;BME280;5651;50.926;4.718;2023-04-07T09:00:01;101655.97;;;11.22;100.00
11190;BME280;5651;50.926;4.718;2023-04-07T09:02:36;101651.63;;;11.16;100.00
11190;BME280;5651;50.926;4.718;2023-04-07T09:05:04;101649.03;;;11.22;100.00
11190;BME280;5651;50.926;4.718;2023-04-07T09:07:32;101649.97;;;11.34;100.00
11190;BME280;5651;50.926;4.718;2023-04-07T09:09:59;101648.28;;;11.47;99.70
11190;BME280;5651;50.926;4.718;2023-04-07T09:12:27;101645.66;;;11.42;100.00
11190;BME280;5651;50.926;4.718;2023-04-07T09:14:53;101652.63;;;11.43;100.00
11190;BME280;5651;50.926;4.718;2023-04-07T09:17:20;101658.66;;;11.28;100.00
11190;BME280;5651;50.926;4.718;2023-04-07T09:19:47;101646.50;;;11.35;100.00
11190;BME280;5651;50.926;4.718;2023-04-07T09:22:13;101656.94;;;11.33;100.00
11190;BME280;5651;50.926;4.718;2023-04-07T09:24:40;101652.56;;;11.31;100.00
11190;BME280;5651;50.926;4.718;2023-04-07T09:27:13;101652.59;;;11.38;100.00
11190;BME280;5651;50.926;4.718;2023-04-07T09:29:40;101650.91;;;11.47;100.00
11190;BME280;5651;50.926;4.718;2023-04-07T09:32:08;101646.56;;;11.52;99.59
11190;BME280;5651;50.926;4.718;2023-04-07T09:34:36;101643.13;;;11.57;100.00
11190;BME280;5651;50.926;4.718;2023-04-07T09:37:04;101650.09;;;11.65;100.00
11190;BME280;5651;50.926;4.718;2023-04-07T09:39:30;101651.91;;;11.80;99.49
11190;BME280;5651;50.926;4.718;2023-04-07T09:41:57;101642.34;;;11.86;100.00
11190;BME280;5651;50.926;4.718;2023-04-07T09:44:24;101649.31;;;11.94;100.00
11190;BME280;5651;50.926;4.718;2023-04-07T09:46:55;101649.38;;;12.03;97.83
11190;BME280;5651;50.926;4.718;2023-04-07T09:49:22;101653.78;;;12.07;99.08
11190;BME280;5651;50.926;4.718;2023-04-07T09:51:56;101649.44;;;12.17;97.61
11190;BME280;5651;50.926;4.718;2023-04-07T09:54:39;101654.66;;;12.34;96.72
11190;BME280;5651;50.926;4.718;2023-04-07T09:57:07;101650.31;;;12.42;98.30
11190;BME280;5651;50.926;4.718;2023-04-07T09:59:35;101644.22;;;12.60;100.00
11190;BME280;5651;50.926;4.718;2023-04-07T10:02:02;101642.47;;;12.65;100.00
11190;BME280;5651;50.926;4.718;2023-04-07T10:04:28;101645.13;;;12.72;99.42
11190;BME280;5651;50.926;4.718;2023-04-07T10:06:55;101649.44;;;12.85;98.29
11190;BME280;5651;50.926;4.718;2023-04-07T10:09:26;101643.34;;;12.84;96.06
11190;BME280;5651;50.926;4.718;2023-04-07T10:11:53;101648.59;;;12.81;96.40
11190;BME280;5651;50.926;4.718;2023-04-07T10:14:20;101651.19;;;12.91;95.74
11190;BME280;5651;50.926;4.718;2023-04-07T10:16:47;101649.44;;;12.76;94.86
11190;BME280;5651;50.926;4.718;2023-04-07T10:19:13;101645.97;;;12.74;95.41
11190;BME280;5651;50.926;4.718;2023-04-07T10:21:41;101648.56;;;12.88;94.84
11190;BME280;5651;50.926;4.718;2023-04-07T10:26:49;101653.81;;;12.88;95.62
11190;BME280;5651;50.926;4.718;2023-04-07T10:29:16;101655.56;;;12.87;94.84
11190;BME280;5651;50.926;4.718;2023-04-07T10:31:44;101653.81;;;12.74;93.75
11190;BME280;5651;50.926;4.718;2023-04-07T10:34:11;101648.59;;;12.55;94.15
11190;BME280;5651;50.926;4.718;2023-04-07T10:39:35;101656.41;;;12.26;94.05
11190;BME280;5651;50.926;4.718;2023-04-07T10:42:02;101659.00;;;12.19;95.75
11190;BME280;5651;50.926;4.718;2023-04-07T10:47:06;101657.28;;;12.32;95.06
11190;BME280;5651;50.926;4.718;2023-04-07T10:49:33;101671.25;;;12.47;95.06
11190;BME280;5651;50.926;4.718;2023-04-07T10:54:38;101669.47;;;12.36;93.40
11190;BME280;5651;50.926;4.718;2023-04-07T10:57:14;101668.56;;;12.10;95.07
11190;BME280;5651;50.926;4.718;2023-04-07T11:02:38;101674.56;;;11.87;96.13
11190;BME280;5651;50.926;4.718;2023-04-07T11:05:05;101678.91;;;11.82;97.04
11190;BME280;5651;50.926;4.718;2023-04-07T11:07:45;101674.56;;;11.88;94.62
11190;BME280;5651;50.926;4.718;2023-04-07T11:10:12;101673.69;;;11.89;95.23
11190;BME280;5651;50.926;4.718;2023-04-07T11:12:40;101680.66;;;11.87;96.49
11190;BME280;5651;50.926;4.718;2023-04-07T11:15:19;101673.69;;;11.91;98.02
11190;BME280;5651;50.926;4.718;2023-04-07T11:18:08;101674.69;;;12.13;96.35
11190;BME280;5651;50.926;4.718;2023-04-07T11:21:00;101671.19;;;12.22;98.62
11190;BME280;5651;50.926;4.718;2023-04-07T11:23:26;101672.97;;;12.49;94.23
11190;BME280;5651;50.926;4.718;2023-04-07T11:25:59;101673.84;;;12.47;95.24
11190;BME280;5651;50.926;4.718;2023-04-07T11:28:29;101679.94;;;12.35;95.80
11190;BME280;5651;50.926;4.718;2023-04-07T11:30:56;101684.31;;;12.34;95.03
11190;BME280;5651;50.926;4.718;2023-04-07T11:33:25;101681.69;;;12.38;95.84
11190;BME280;5651;50.926;4.718;2023-04-07T11:35:59;101677.34;;;12.44;95.16
11190;BME280;5651;50.926;4.718;2023-04-07T11:38:27;101686.03;;;12.28;95.98
11190;BME280;5651;50.926;4.718;2023-04-07T11:40:54;101683.41;;;12.29;96.28
11190;BME280;5651;50.926;4.718;2023-04-07T11:43:25;101692.13;;;12.28;95.58
11190;BME280;5651;50.926;4.718;2023-04-07T11:46:11;101688.63;;;12.23;94.24
11190;BME280;5651;50.926;4.718;2023-04-07T11:48:39;101692.97;;;12.19;95.16
11190;BME280;5651;50.926;4.718;2023-04-07T11:51:05;101689.50;;;12.20;95.76
11190;BME280;5651;50.926;4.718;2023-04-07T11:53:34;101694.75;;;12.33;95.80
11190;BME280;5651;50.926;4.718;2023-04-07T11:56:07;101689.53;;;12.41;95.71
11190;BME280;5651;50.926;4.718;2023-04-07T11:58:35;101694.78;;;12.47;96.15
11190;BME280;5651;50.926;4.718;2023-04-07T12:01:05;101693.88;;;12.39;94.97
11190;BME280;5651;50.926;4.718;2023-04-07T12:03:36;101694.75;;;12.42;94.26
11190;BME280;5651;50.926;4.718;2023-04-07T12:06:03;101698.22;;;12.26;92.95
11190;BME280;5651;50.926;4.718;2023-04-07T12:08:39;101706.03;;;12.26;95.05
11190;BME280;5651;50.926;4.718;2023-04-07T12:11:06;101710.38;;;12.08;94.98
11190;BME280;5651;50.926;4.718;2023-04-07T12:13:33;101719.81;;;11.80;94.03
11190;BME280;5651;50.926;4.718;2023-04-07T12:16:00;101717.97;;;11.57;95.19
11190;BME280;5651;50.926;4.718;2023-04-07T12:18:26;101724.91;;;11.55;95.86
11190;BME280;5651;50.926;4.718;2023-04-07T12:20:52;101720.56;;;11.58;95.90
11190;BME280;5651;50.926;4.718;2023-04-07T12:23:18;101730.91;;;11.45;96.68
11190;BME280;5651;50.926;4.718;2023-04-07T12:25:44;101725.75;;;11.54;96.95
11190;BME280;5651;50.926;4.718;2023-04-07T12:28:10;101728.41;;;11.55;96.34
11190;BME280;5651;50.926;4.718;2023-04-07T12:30:36;101730.94;;;11.46;98.41
11190;BME280;5651;50.926;4.718;2023-04-07T12:33:02;101737.13;;;11.59;97.02
11190;BME280;5651;50.926;4.718;2023-04-07T12:35:28;101727.56;;;11.63;96.38
11190;BME280;5651;50.926;4.718;2023-04-07T12:37:55;101737.97;;;11.61;96.38
11190;BME280;5651;50.926;4.718;2023-04-07T12:40:22;101733.66;;;11.65;98.78
11190;BME280;5651;50.926;4.718;2023-04-07T12:42:48;101736.34;;;11.79;97.02
11190;BME280;5651;50.926;4.718;2023-04-07T12:45:14;101738.97;;;11.86;96.20
11190;BME280;5651;50.926;4.718;2023-04-07T12:47:40;101732.03;;;11.93;97.62
11190;BME280;5651;50.926;4.718;2023-04-07T12:50:07;101733.00;;;12.04;96.47
11190;BME280;5651;50.926;4.718;2023-04-07T12:52:33;101729.56;;;12.19;94.27
11190;BME280;5651;50.926;4.718;2023-04-07T12:54:58;101733.94;;;12.28;95.28
11190;BME280;5651;50.926;4.718;2023-04-07T12:57:24;101731.34;;;12.38;94.59
11190;BME280;5651;50.926;4.718;2023-04-07T12:59:50;101728.75;;;12.55;93.05
11190;BME280;5651;50.926;4.718;2023-04-07T13:02:18;101729.63;;;12.63;94.24
11190;BME280;5651;50.926;4.718;2023-04-07T13:04:44;101726.16;;;12.81;92.05
11190;BME280;5651;50.926;4.718;2023-04-07T13:07:14;101725.31;;;12.91;92.50
11190;BME280;5651;50.926;4.718;2023-04-07T13:09:40;101729.66;;;13.08;93.23
11190;BME280;5651;50.926;4.718;2023-04-07T13:12:12;101729.63;;;13.32;91.81
11190;BME280;5651;50.926;4.718;2023-04-07T13:14:39;101727.03;;;13.39;91.30
11190;BME280;5651;50.926;4.718;2023-04-07T13:17:06;101726.97;;;13.60;90.68
11190;BME280;5651;50.926;4.718;2023-04-07T13:19:33;101730.41;;;13.79;90.40
11190;BME280;5651;50.926;4.718;2023-04-07T13:21:59;101723.31;;;14.05;88.22
11190;BME280;5651;50.926;4.718;2023-04-07T13:24:25;101725.03;;;14.09;88.57